sensor_id;sensor_type;location;lat;lon;timestamp;temperature;humidity
7934;DHT22;4012;48.896;9.192;2023-03-19T00:02:20;12.00;99.90
7934;DHT22;4012;48.896;9.192;2023-03-19T00:04:46;12.00;99.90
7934;DHT22;4012;48.896;9.192;2023-03-19T00:07:13;12.00;99.90
7934;DHT22;4012;48.896;9.192;2023-03-19T00:09:40;12.00;99.90
7934;DHT22;4012;48.896;9.192;2023-03-19T00:12:06;12.00;99.90
7934;DHT22;4012;48.896;9.192;2023-03-19T00:14:33;12.00;99.90
7934;DHT22;4012;48.896;9.192;2023-03-19T00:16:59;12.00;99.90
7934;DHT22;4012;48.896;9.192;2023-03-19T00:19:25;12.00;99.90
7934;DHT22;4012;48.896;9.192;2023-03-19T00:21:51;12.00;99.90
7934;DHT22;4012;48.896;9.192;2023-03-19T00:24:17;11.90;99.90
7934;DHT22;4012;48.896;9.192;2023-03-19T00:26:43;11.90;99.90
7934;DHT22;4012;48.896;9.192;2023-03-19T00:29:09;11.70;99.90
7934;DHT22;4012;48.896;9.192;2023-03-19T00:31:34;11.60;99.90
7934;DHT22;4012;48.896;9.192;2023-03-19T00:34:00;11.50;99.90
7934;DHT22;4012;48.896;9.192;2023-03-19T00:36:26;11.50;99.90
7934;DHT22;4012;48.896;9.192;2023-03-19T00:38:53;11.40;99.90
7934;DHT22;4012;48.896;9.192;2023-03-19T00:41:19;11.50;99.90
7934;DHT22;4012;48.896;9.192;2023-03-19T00:43:45;11.50;99.90
7934;DHT22;4012;48.896;9.192;2023-03-19T00:46:11;11.50;99.90
7934;DHT22;4012;48.896;9.192;2023-03-19T00:48:37;11.50;99.90
7934;DHT22;4012;48.896;9.192;2023-03-19T00:51:05;11.50;99.90
7934;DHT22;4012;48.896;9.192;2023-03-19T00:53:32;11.60;99.90
7934;DHT22;4012;48.896;9.192;2023-03-19T00:56:00;11.60;99.90
7934;DHT22;4012;48.896;9.192;2023-03-19T00:58:26;11.70;99.90
7934;DHT22;4012;48.896;9.192;2023-03-19T01:00:53;11.60;99.90
7934;DHT22;4012;48.896;9.192;2023-03-19T01:03:18;11.60;99.90
7934;DHT22;4012;48.896;9.192;2023-03-19T01:05:47;11.60;99.90
7934;DHT22;4012;48.896;9.192;2023-03-19T01:08:13;11.70;99.90
7934;DHT22;4012;48.896;9.192;2023-03-19T01:10:39;11.70;99.90
7934;DHT22;4012;48.896;9.192;2023-03-19T01:13:05;11.80;99.90
7934;DHT22;4012;48.896;9.192;2023-03-19T01:15:35;11.80;99.90
7934;DHT22;4012;48.896;9.192;2023-03-19T01:18:00;11.80;99.90
7934;DHT22;4012;48.896;9.192;2023-03-19T01:20:26;11.80;99.90
7934;DHT22;4012;48.896;9.192;2023-03-19T01:22:52;11.90;99.90
7934;DHT22;4012;48.896;9.192;2023-03-19T01:25:17;11.90;99.90
7934;DHT22;4012;48.896;9.192;2023-03-19T01:27:43;11.90;99.90
7934;DHT22;4012;48.896;9.192;2023-03-19T01:30:09;12.00;99.90
7934;DHT22;4012;48.896;9.192;2023-03-19T01:32:35;11.90;99.90
7934;DHT22;4012;48.896;9.192;2023-03-19T01:35:00;11.90;99.90
7934;DHT22;4012;48.896;9.192;2023-03-19T01:37:26;11.80;99.90
7934;DHT22;4012;48.896;9.192;2023-03-19T01:39:52;11.80;99.90
7934;DHT22;4012;48.896;9.192;2023-03-19T01:42:19;11.80;99.90
7934;DHT22;4012;48.896;9.192;2023-03-19T01:44:44;11.70;99.90
7934;DHT22;4012;48.896;9.192;2023-03-19T01:47:24;11.70;99.90
7934;DHT22;4012;48.896;9.192;2023-03-19T01:49:53;11.70;99.90
7934;DHT22;4012;48.896;9.192;2023-03-19T01:52:20;11.70;99.90
7934;DHT22;4012;48.896;9.192;2023-03-19T01:54:48;11.70;99.90
7934;DHT22;4012;48.896;9.192;2023-03-19T01:57:15;11.70;99.90
7934;DHT22;4012;48.896;9.192;2023-03-19T01:59:46;11.70;99.90
7934;DHT22;4012;48.896;9.192;2023-03-19T02:02:26;11.70;99.90
7934;DHT22;4012;48.896;9.192;2023-03-19T02:05:00;11.70;99.90
7934;DHT22;4012;48.896;9.192;2023-03-19T02:07:29;11.80;99.90
7934;DHT22;4012;48.896;9.192;2023-03-19T02:09:57;11.80;99.90
7934;DHT22;4012;48.896;9.192;2023-03-19T02:12:23;11.80;99.90
7934;DHT22;4012;48.896;9.192;2023-03-19T02:14:48;11.80;99.90
7934;DHT22;4012;48.896;9.192;2023-03-19T02:17:14;11.90;99.90
7934;DHT22;4012;48.896;9.192;2023-03-19T02:20:12;11.90;99.90
7934;DHT22;4012;48.896;9.192;2023-03-19T02:22:45;11.80;99.90
7934;DHT22;4012;48.896;9.192;2023-03-19T02:25:23;11.80;99.90
7934;DHT22;4012;48.896;9.192;2023-03-19T02:27:52;11.90;99.90
7934;DHT22;4012;48.896;9.192;2023-03-19T02:30:25;11.90;99.90
7934;DHT22;4012;48.896;9.192;2023-03-19T02:32:51;11.90;99.90
7934;DHT22;4012;48.896;9.192;2023-03-19T02:35:17;11.90;99.90
7934;DHT22;4012;48.896;9.192;2023-03-19T02:37:42;12.00;99.90
7934;DHT22;4012;48.896;9.192;2023-03-19T02:40:21;12.00;99.90
7934;DHT22;4012;48.896;9.192;2023-03-19T02:42:47;11.90;99.90
7934;DHT22;4012;48.896;9.192;2023-03-19T02:45:14;11.80;99.90
7934;DHT22;4012;48.896;9.192;2023-03-19T02:47:39;11.70;99.90
7934;DHT22;4012;48.896;9.192;2023-03-19T02:50:06;11.70;99.90
7934;DHT22;4012;48.896;9.192;2023-03-19T02:52:32;11.70;99.90
7934;DHT22;4012;48.896;9.192;2023-03-19T02:54:58;11.70;99.90
7934;DHT22;4012;48.896;9.192;2023-03-19T02:57:24;11.60;99.90
7934;DHT22;4012;48.896;9.192;2023-03-19T02:59:50;11.70;99.90
7934;DHT22;4012;48.896;9.192;2023-03-19T03:02:15;11.60;99.90
7934;DHT22;4012;48.896;9.192;2023-03-19T03:04:41;11.50;99.90
7934;DHT22;4012;48.896;9.192;2023-03-19T03:07:07;11.50;99.90
7934;DHT22;4012;48.896;9.192;2023-03-19T03:09:33;11.40;99.90
7934;DHT22;4012;48.896;9.192;2023-03-19T03:11:59;11.30;99.90
7934;DHT22;4012;48.896;9.192;2023-03-19T03:14:25;11.30;99.90
7934;DHT22;4012;48.896;9.192;2023-03-19T03:16:50;11.40;99.90
7934;DHT22;4012;48.896;9.192;2023-03-19T03:19:16;11.40;99.90
7934;DHT22;4012;48.896;9.192;2023-03-19T03:21:42;11.50;99.90
7934;DHT22;4012;48.896;9.192;2023-03-19T03:24:08;11.50;99.90
7934;DHT22;4012;48.896;9.192;2023-03-19T03:26:34;11.50;99.90
7934;DHT22;4012;48.896;9.192;2023-03-19T03:29:06;11.50;99.90
7934;DHT22;4012;48.896;9.192;2023-03-19T03:31:32;11.40;99.90
7934;DHT22;4012;48.896;9.192;2023-03-19T03:33:57;11.30;99.90
7934;DHT22;4012;48.896;9.192;2023-03-19T03:36:23;11.30;99.90
7934;DHT22;4012;48.896;9.192;2023-03-19T03:38:49;11.30;99.90
7934;DHT22;4012;48.896;9.192;2023-03-19T03:41:15;11.30;99.90
7934;DHT22;4012;48.896;9.192;2023-03-19T03:43:41;11.40;99.90
7934;DHT22;4012;48.896;9.192;2023-03-19T03:46:06;11.40;99.90
7934;DHT22;4012;48.896;9.192;2023-03-19T03:48:33;11.10;99.90
7934;DHT22;4012;48.896;9.192;2023-03-19T03:50:59;11.00;99.90
7934;DHT22;4012;48.896;9.192;2023-03-19T03:53:25;10.90;99.90
7934;DHT22;4012;48.896;9.192;2023-03-19T03:55:51;10.90;99.90
7934;DHT22;4012;48.896;9.192;2023-03-19T03:58:17;10.90;99.90
7934;DHT22;4012;48.896;9.192;2023-03-19T04:00:42;10.90;99.90
7934;DHT22;4012;48.896;9.192;2023-03-19T04:03:08;10.90;99.90
7934;DHT22;4012;48.896;9.192;2023-03-19T04:05:34;11.00;99.90
7934;DHT22;4012;48.896;9.192;2023-03-19T04:08:01;11.10;99.90
7934;DHT22;4012;48.896;9.192;2023-03-19T04:10:28;11.00;99.90
7934;DHT22;4012;48.896;9.192;2023-03-19T04:12:54;11.10;99.90
7934;DHT22;4012;48.896;9.192;2023-03-19T04:15:19;11.10;99.90
7934;DHT22;4012;48.896;9.192;2023-03-19T04:17:45;11.10;99.90
7934;DHT22;4012;48.896;9.192;2023-03-19T04:20:10;11.00;99.90
7934;DHT22;4012;48.896;9.192;2023-03-19T04:22:37;11.10;99.90
7934;DHT22;4012;48.896;9.192;2023-03-19T04:25:03;11.20;99.90
7934;DHT22;4012;48.896;9.192;2023-03-19T04:27:29;11.10;99.90
7934;DHT22;4012;48.896;9.192;2023-03-19T04:29:55;11.10;99.90
7934;DHT22;4012;48.896;9.192;2023-03-19T04:32:20;11.10;99.90
7934;DHT22;4012;48.896;9.192;2023-03-19T04:34:46;11.10;99.90
7934;DHT22;4012;48.896;9.192;2023-03-19T04:37:12;11.10;99.90
7934;DHT22;4012;48.896;9.192;2023-03-19T04:39:38;11.10;99.90
7934;DHT22;4012;48.896;9.192;2023-03-19T04:42:03;11.10;99.90
7934;DHT22;4012;48.896;9.192;2023-03-19T04:44:30;11.10;99.90
7934;DHT22;4012;48.896;9.192;2023-03-19T04:46:56;11.10;99.90
7934;DHT22;4012;48.896;9.192;2023-03-19T04:49:22;11.00;99.90
7934;DHT22;4012;48.896;9.192;2023-03-19T04:51:49;11.00;99.90
7934;DHT22;4012;48.896;9.192;2023-03-19T04:54:15;11.10;99.90
7934;DHT22;4012;48.896;9.192;2023-03-19T04:56:40;11.10;99.90
7934;DHT22;4012;48.896;9.192;2023-03-19T04:59:06;11.10;99.90
7934;DHT22;4012;48.896;9.192;2023-03-19T05:01:32;11.20;99.90
7934;DHT22;4012;48.896;9.192;2023-03-19T05:03:57;11.10;99.90
7934;DHT22;4012;48.896;9.192;2023-03-19T05:06:23;11.10;99.90
7934;DHT22;4012;48.896;9.192;2023-03-19T05:08:49;11.00;99.90
7934;DHT22;4012;48.896;9.192;2023-03-19T05:11:14;11.00;99.90
7934;DHT22;4012;48.896;9.192;2023-03-19T05:13:41;11.00;99.90
7934;DHT22;4012;48.896;9.192;2023-03-19T05:16:06;11.00;99.90
7934;DHT22;4012;48.896;9.192;2023-03-19T05:18:32;11.10;99.90
7934;DHT22;4012;48.896;9.192;2023-03-19T05:20:58;11.10;99.90
7934;DHT22;4012;48.896;9.192;2023-03-19T05:23:23;11.10;99.90
7934;DHT22;4012;48.896;9.192;2023-03-19T05:25:49;11.10;99.90
7934;DHT22;4012;48.896;9.192;2023-03-19T05:28:15;11.00;99.90
7934;DHT22;4012;48.896;9.192;2023-03-19T05:30:40;10.90;99.90
7934;DHT22;4012;48.896;9.192;2023-03-19T05:33:07;10.90;99.90
7934;DHT22;4012;48.896;9.192;2023-03-19T05:35:33;10.80;99.90
7934;DHT22;4012;48.896;9.192;2023-03-19T05:37:58;10.80;99.90
7934;DHT22;4012;48.896;9.192;2023-03-19T05:40:24;10.80;99.90
7934;DHT22;4012;48.896;9.192;2023-03-19T05:42:50;10.70;99.90
7934;DHT22;4012;48.896;9.192;2023-03-19T05:45:16;10.70;99.90
7934;DHT22;4012;48.896;9.192;2023-03-19T05:47:42;10.80;99.90
7934;DHT22;4012;48.896;9.192;2023-03-19T05:50:09;10.80;99.90
7934;DHT22;4012;48.896;9.192;2023-03-19T05:52:36;10.60;99.90
7934;DHT22;4012;48.896;9.192;2023-03-19T05:55:01;10.80;99.90
7934;DHT22;4012;48.896;9.192;2023-03-19T05:57:27;10.70;99.90
7934;DHT22;4012;48.896;9.192;2023-03-19T05:59:53;10.80;99.90
7934;DHT22;4012;48.896;9.192;2023-03-19T06:02:18;10.70;99.90
7934;DHT22;4012;48.896;9.192;2023-03-19T06:04:44;10.60;99.90
7934;DHT22;4012;48.896;9.192;2023-03-19T06:07:10;10.70;99.90
7934;DHT22;4012;48.896;9.192;2023-03-19T06:09:35;10.80;99.90
7934;DHT22;4012;48.896;9.192;2023-03-19T06:12:01;10.70;99.90
7934;DHT22;4012;48.896;9.192;2023-03-19T06:14:26;10.80;99.90
7934;DHT22;4012;48.896;9.192;2023-03-19T06:16:52;10.80;99.90
7934;DHT22;4012;48.896;9.192;2023-03-19T06:19:18;10.70;99.90
7934;DHT22;4012;48.896;9.192;2023-03-19T06:21:44;10.80;99.90
7934;DHT22;4012;48.896;9.192;2023-03-19T06:24:10;10.90;99.90
7934;DHT22;4012;48.896;9.192;2023-03-19T06:26:35;10.90;99.90
7934;DHT22;4012;48.896;9.192;2023-03-19T06:29:02;11.00;99.90
7934;DHT22;4012;48.896;9.192;2023-03-19T06:31:27;11.00;99.90
7934;DHT22;4012;48.896;9.192;2023-03-19T06:33:54;11.00;99.90
7934;DHT22;4012;48.896;9.192;2023-03-19T06:36:19;10.90;99.90
7934;DHT22;4012;48.896;9.192;2023-03-19T06:38:45;11.00;99.90
7934;DHT22;4012;48.896;9.192;2023-03-19T06:41:11;11.00;99.90
7934;DHT22;4012;48.896;9.192;2023-03-19T06:43:37;11.00;99.90
7934;DHT22;4012;48.896;9.192;2023-03-19T06:46:05;11.00;99.90
7934;DHT22;4012;48.896;9.192;2023-03-19T06:48:32;11.10;99.90
7934;DHT22;4012;48.896;9.192;2023-03-19T06:50:58;11.10;99.90
7934;DHT22;4012;48.896;9.192;2023-03-19T06:53:24;11.10;99.90
7934;DHT22;4012;48.896;9.192;2023-03-19T06:55:50;11.10;99.90
7934;DHT22;4012;48.896;9.192;2023-03-19T06:58:16;11.10;99.90
7934;DHT22;4012;48.896;9.192;2023-03-19T07:00:42;11.20;99.90
7934;DHT22;4012;48.896;9.192;2023-03-19T07:03:08;11.30;99.90
7934;DHT22;4012;48.896;9.192;2023-03-19T07:05:34;11.40;99.90
7934;DHT22;4012;48.896;9.192;2023-03-19T07:08:00;11.50;99.90
7934;DHT22;4012;48.896;9.192;2023-03-19T07:10:27;11.60;99.90
7934;DHT22;4012;48.896;9.192;2023-03-19T07:12:53;11.70;99.90
7934;DHT22;4012;48.896;9.192;2023-03-19T07:15:19;11.80;99.90
7934;DHT22;4012;48.896;9.192;2023-03-19T07:17:46;11.90;99.90
7934;DHT22;4012;48.896;9.192;2023-03-19T07:20:12;12.00;99.90
7934;DHT22;4012;48.896;9.192;2023-03-19T07:22:38;12.10;99.90
7934;DHT22;4012;48.896;9.192;2023-03-19T07:25:04;12.20;99.90
7934;DHT22;4012;48.896;9.192;2023-03-19T07:27:30;12.30;99.90
7934;DHT22;4012;48.896;9.192;2023-03-19T07:29:56;12.20;99.90
7934;DHT22;4012;48.896;9.192;2023-03-19T07:32:21;12.30;99.90
7934;DHT22;4012;48.896;9.192;2023-03-19T07:34:48;12.30;99.90
7934;DHT22;4012;48.896;9.192;2023-03-19T07:37:14;12.20;99.90
7934;DHT22;4012;48.896;9.192;2023-03-19T07:39:39;12.30;99.90
7934;DHT22;4012;48.896;9.192;2023-03-19T07:42:05;12.40;99.90
7934;DHT22;4012;48.896;9.192;2023-03-19T07:44:31;12.30;99.90
7934;DHT22;4012;48.896;9.192;2023-03-19T07:46:56;12.40;99.90
7934;DHT22;4012;48.896;9.192;2023-03-19T07:49:22;12.50;99.90
7934;DHT22;4012;48.896;9.192;2023-03-19T07:51:48;12.40;99.90
7934;DHT22;4012;48.896;9.192;2023-03-19T07:54:14;12.40;99.90
7934;DHT22;4012;48.896;9.192;2023-03-19T07:56:40;12.30;99.90
7934;DHT22;4012;48.896;9.192;2023-03-19T07:59:05;12.20;99.90
7934;DHT22;4012;48.896;9.192;2023-03-19T08:01:31;12.40;99.90
7934;DHT22;4012;48.896;9.192;2023-03-19T08:03:57;12.60;99.90
7934;DHT22;4012;48.896;9.192;2023-03-19T08:06:22;12.70;99.90
7934;DHT22;4012;48.896;9.192;2023-03-19T08:08:48;12.80;99.90
7934;DHT22;4012;48.896;9.192;2023-03-19T08:11:14;13.00;99.90
7934;DHT22;4012;48.896;9.192;2023-03-19T08:13:40;13.00;99.90
7934;DHT22;4012;48.896;9.192;2023-03-19T08:16:07;13.30;99.90
7934;DHT22;4012;48.896;9.192;2023-03-19T08:18:33;13.60;99.90
7934;DHT22;4012;48.896;9.192;2023-03-19T08:20:58;13.60;99.90
7934;DHT22;4012;48.896;9.192;2023-03-19T08:23:24;13.70;99.90
7934;DHT22;4012;48.896;9.192;2023-03-19T08:25:51;13.80;99.90
7934;DHT22;4012;48.896;9.192;2023-03-19T08:28:18;13.90;99.90
7934;DHT22;4012;48.896;9.192;2023-03-19T08:30:44;13.80;99.90
7934;DHT22;4012;48.896;9.192;2023-03-19T08:33:09;13.70;99.90
7934;DHT22;4012;48.896;9.192;2023-03-19T08:35:35;13.60;99.90
7934;DHT22;4012;48.896;9.192;2023-03-19T08:38:01;13.50;99.90
7934;DHT22;4012;48.896;9.192;2023-03-19T08:40:26;13.50;99.90
7934;DHT22;4012;48.896;9.192;2023-03-19T08:42:53;13.50;99.90
7934;DHT22;4012;48.896;9.192;2023-03-19T08:45:19;13.50;99.90
7934;DHT22;4012;48.896;9.192;2023-03-19T08:47:45;13.60;99.90
7934;DHT22;4012;48.896;9.192;2023-03-19T08:50:11;13.60;99.90
7934;DHT22;4012;48.896;9.192;2023-03-19T08:52:36;13.70;99.90
7934;DHT22;4012;48.896;9.192;2023-03-19T08:55:03;13.90;99.90
7934;DHT22;4012;48.896;9.192;2023-03-19T08:57:30;14.50;99.90
7934;DHT22;4012;48.896;9.192;2023-03-19T08:59:56;15.70;99.90
7934;DHT22;4012;48.896;9.192;2023-03-19T09:02:22;16.40;99.90
7934;DHT22;4012;48.896;9.192;2023-03-19T09:04:48;16.60;99.90
7934;DHT22;4012;48.896;9.192;2023-03-19T09:07:13;16.60;99.90
7934;DHT22;4012;48.896;9.192;2023-03-19T09:09:41;17.20;99.90
7934;DHT22;4012;48.896;9.192;2023-03-19T09:12:08;18.90;99.90
7934;DHT22;4012;48.896;9.192;2023-03-19T09:14:34;20.00;99.90
7934;DHT22;4012;48.896;9.192;2023-03-19T09:17:00;20.80;99.90
7934;DHT22;4012;48.896;9.192;2023-03-19T09:19:26;21.60;99.90
7934;DHT22;4012;48.896;9.192;2023-03-19T09:21:51;21.90;99.90
7934;DHT22;4012;48.896;9.192;2023-03-19T09:24:17;22.20;99.90
7934;DHT22;4012;48.896;9.192;2023-03-19T09:26:44;23.50;99.90
7934;DHT22;4012;48.896;9.192;2023-03-19T09:29:10;24.60;99.90
7934;DHT22;4012;48.896;9.192;2023-03-19T09:31:36;24.90;99.90
7934;DHT22;4012;48.896;9.192;2023-03-19T09:34:02;25.10;99.90
7934;DHT22;4012;48.896;9.192;2023-03-19T09:36:27;23.50;99.90
7934;DHT22;4012;48.896;9.192;2023-03-19T09:38:53;23.40;99.90
7934;DHT22;4012;48.896;9.192;2023-03-19T09:41:54;23.00;99.90
7934;DHT22;4012;48.896;9.192;2023-03-19T09:44:29;23.90;99.90
7934;DHT22;4012;48.896;9.192;2023-03-19T09:47:09;24.80;99.90
7934;DHT22;4012;48.896;9.192;2023-03-19T09:49:40;24.70;99.90
7934;DHT22;4012;48.896;9.192;2023-03-19T09:57:49;25.30;99.90
7934;DHT22;4012;48.896;9.192;2023-03-19T10:02:43;25.90;99.90
7934;DHT22;4012;48.896;9.192;2023-03-19T10:05:31;25.30;99.90
7934;DHT22;4012;48.896;9.192;2023-03-19T10:13:58;21.50;99.90
7934;DHT22;4012;48.896;9.192;2023-03-19T10:16:27;21.00;99.90
7934;DHT22;4012;48.896;9.192;2023-03-19T10:18:57;21.50;99.90
7934;DHT22;4012;48.896;9.192;2023-03-19T10:21:41;21.00;99.90
7934;DHT22;4012;48.896;9.192;2023-03-19T10:26:37;22.90;99.90
7934;DHT22;4012;48.896;9.192;2023-03-19T10:29:07;22.80;99.90
7934;DHT22;4012;48.896;9.192;2023-03-19T10:37:00;21.30;99.90
7934;DHT22;4012;48.896;9.192;2023-03-19T10:39:32;21.30;99.90
7934;DHT22;4012;48.896;9.192;2023-03-19T10:44:49;21.90;99.90
7934;DHT22;4012;48.896;9.192;2023-03-19T10:47:16;20.50;99.90
7934;DHT22;4012;48.896;9.192;2023-03-19T10:49:44;21.20;99.90
7934;DHT22;4012;48.896;9.192;2023-03-19T10:52:17;21.90;99.90
7934;DHT22;4012;48.896;9.192;2023-03-19T10:54:44;22.40;99.90
7934;DHT22;4012;48.896;9.192;2023-03-19T10:57:23;22.50;99.90
7934;DHT22;4012;48.896;9.192;2023-03-19T10:59:49;22.80;99.90
7934;DHT22;4012;48.896;9.192;2023-03-19T11:02:23;23.10;99.90
7934;DHT22;4012;48.896;9.192;2023-03-19T11:07:36;20.30;99.90
7934;DHT22;4012;48.896;9.192;2023-03-19T11:10:01;18.90;99.90
7934;DHT22;4012;48.896;9.192;2023-03-19T11:12:34;19.10;99.90
7934;DHT22;4012;48.896;9.192;2023-03-19T11:15:02;19.50;99.90
7934;DHT22;4012;48.896;9.192;2023-03-19T11:17:59;19.00;99.90
7934;DHT22;4012;48.896;9.192;2023-03-19T11:22:53;18.50;99.90
7934;DHT22;4012;48.896;9.192;2023-03-19T11:25:26;19.00;99.90
7934;DHT22;4012;48.896;9.192;2023-03-19T11:28:01;19.20;99.90
7934;DHT22;4012;48.896;9.192;2023-03-19T11:36:20;17.90;99.90
7934;DHT22;4012;48.896;9.192;2023-03-19T11:41:52;17.90;99.90
7934;DHT22;4012;48.896;9.192;2023-03-19T11:44:36;18.80;99.90
7934;DHT22;4012;48.896;9.192;2023-03-19T11:55:53;19.70;99.90
7934;DHT22;4012;48.896;9.192;2023-03-19T12:00:55;20.40;99.90
7934;DHT22;4012;48.896;9.192;2023-03-19T12:04:02;19.40;99.90
7934;DHT22;4012;48.896;9.192;2023-03-19T12:11:57;19.70;99.90
7934;DHT22;4012;48.896;9.192;2023-03-19T12:14:36;19.90;99.90
7934;DHT22;4012;48.896;9.192;2023-03-19T12:28:20;19.40;99.90
7934;DHT22;4012;48.896;9.192;2023-03-19T12:36:10;19.00;99.90
7934;DHT22;4012;48.896;9.192;2023-03-19T12:38:43;19.30;99.90
7934;DHT22;4012;48.896;9.192;2023-03-19T12:41:24;18.80;99.90
7934;DHT22;4012;48.896;9.192;2023-03-19T12:44:11;19.00;99.90
7934;DHT22;4012;48.896;9.192;2023-03-19T12:47:06;19.10;99.90
7934;DHT22;4012;48.896;9.192;2023-03-19T12:52:34;17.20;99.90
7934;DHT22;4012;48.896;9.192;2023-03-19T12:55:22;17.10;99.90
7934;DHT22;4012;48.896;9.192;2023-03-19T12:57:57;16.60;99.90
7934;DHT22;4012;48.896;9.192;2023-03-19T13:00:30;16.40;99.90
7934;DHT22;4012;48.896;9.192;2023-03-19T13:05:47;16.20;99.90
7934;DHT22;4012;48.896;9.192;2023-03-19T13:08:25;16.10;99.90
7934;DHT22;4012;48.896;9.192;2023-03-19T13:10:53;15.80;99.90
7934;DHT22;4012;48.896;9.192;2023-03-19T13:21:36;15.20;99.90
7934;DHT22;4012;48.896;9.192;2023-03-19T13:24:30;15.00;99.90
7934;DHT22;4012;48.896;9.192;2023-03-19T13:27:06;14.70;99.90
7934;DHT22;4012;48.896;9.192;2023-03-19T13:29:35;14.70;99.90
7934;DHT22;4012;48.896;9.192;2023-03-19T13:32:23;14.70;99.90
7934;DHT22;4012;48.896;9.192;2023-03-19T13:34:49;14.70;99.90
7934;DHT22;4012;48.896;9.192;2023-03-19T13:37:16;14.80;99.90
7934;DHT22;4012;48.896;9.192;2023-03-19T13:39:43;14.80;99.90
7934;DHT22;4012;48.896;9.192;2023-03-19T13:42:38;14.90;99.90
7934;DHT22;4012;48.896;9.192;2023-03-19T13:47:47;15.10;99.90
7934;DHT22;4012;48.896;9.192;2023-03-19T13:50:24;15.10;99.90
7934;DHT22;4012;48.896;9.192;2023-03-19T13:52:53;15.40;99.90
7934;DHT22;4012;48.896;9.192;2023-03-19T13:55:50;15.80;99.90
7934;DHT22;4012;48.896;9.192;2023-03-19T13:58:27;15.60;99.90
7934;DHT22;4012;48.896;9.192;2023-03-19T14:01:39;15.40;99.90
7934;DHT22;4012;48.896;9.192;2023-03-19T14:04:14;15.60;99.90
7934;DHT22;4012;48.896;9.192;2023-03-19T14:06:54;15.60;99.90
7934;DHT22;4012;48.896;9.192;2023-03-19T14:09:42;15.80;99.90
7934;DHT22;4012;48.896;9.192;2023-03-19T14:12:20;15.90;99.90
7934;DHT22;4012;48.896;9.192;2023-03-19T14:14:50;16.00;99.90
7934;DHT22;4012;48.896;9.192;2023-03-19T14:17:31;16.20;99.90
7934;DHT22;4012;48.896;9.192;2023-03-19T14:20:04;16.10;99.90
7934;DHT22;4012;48.896;9.192;2023-03-19T14:25:21;16.10;99.90
7934;DHT22;4012;48.896;9.192;2023-03-19T14:27:49;16.10;99.90
7934;DHT22;4012;48.896;9.192;2023-03-19T14:33:06;16.40;99.90
7934;DHT22;4012;48.896;9.192;2023-03-19T14:35:40;16.50;99.90
7934;DHT22;4012;48.896;9.192;2023-03-19T14:38:39;16.70;99.90
7934;DHT22;4012;48.896;9.192;2023-03-19T14:41:05;16.70;99.90
7934;DHT22;4012;48.896;9.192;2023-03-19T14:46:40;15.90;99.90
7934;DHT22;4012;48.896;9.192;2023-03-19T14:54:40;15.50;99.90
7934;DHT22;4012;48.896;9.192;2023-03-19T14:57:25;15.50;99.90
7934;DHT22;4012;48.896;9.192;2023-03-19T14:59:53;15.30;99.90
7934;DHT22;4012;48.896;9.192;2023-03-19T15:02:39;15.20;99.90
7934;DHT22;4012;48.896;9.192;2023-03-19T15:07:45;15.00;99.90
7934;DHT22;4012;48.896;9.192;2023-03-19T15:10:21;15.20;99.90
7934;DHT22;4012;48.896;9.192;2023-03-19T15:13:23;15.30;99.90
7934;DHT22;4012;48.896;9.192;2023-03-19T15:15:56;15.20;99.90
7934;DHT22;4012;48.896;9.192;2023-03-19T15:18:25;15.40;99.90
7934;DHT22;4012;48.896;9.192;2023-03-19T15:20:52;15.40;99.90
7934;DHT22;4012;48.896;9.192;2023-03-19T15:23:21;15.20;99.90
7934;DHT22;4012;48.896;9.192;2023-03-19T15:25:54;15.20;99.90
7934;DHT22;4012;48.896;9.192;2023-03-19T15:28:26;15.40;99.90
7934;DHT22;4012;48.896;9.192;2023-03-19T15:31:00;15.40;99.90
7934;DHT22;4012;48.896;9.192;2023-03-19T15:33:37;15.40;99.90
7934;DHT22;4012;48.896;9.192;2023-03-19T15:36:19;15.50;99.90
7934;DHT22;4012;48.896;9.192;2023-03-19T15:39:09;15.50;99.90
7934;DHT22;4012;48.896;9.192;2023-03-19T15:41:40;15.10;99.90
7934;DHT22;4012;48.896;9.192;2023-03-19T15:44:12;15.10;99.90
7934;DHT22;4012;48.896;9.192;2023-03-19T15:46:40;15.00;99.90
7934;DHT22;4012;48.896;9.192;2023-03-19T15:49:20;15.10;99.90
7934;DHT22;4012;48.896;9.192;2023-03-19T15:51:50;15.00;99.90
7934;DHT22;4012;48.896;9.192;2023-03-19T15:54:18;14.90;99.90
7934;DHT22;4012;48.896;9.192;2023-03-19T15:56:45;14.70;99.90
7934;DHT22;4012;48.896;9.192;2023-03-19T15:59:12;14.60;99.90
7934;DHT22;4012;48.896;9.192;2023-03-19T16:01:37;14.50;99.90
7934;DHT22;4012;48.896;9.192;2023-03-19T16:04:10;14.20;99.90
7934;DHT22;4012;48.896;9.192;2023-03-19T16:06:38;14.00;99.90
7934;DHT22;4012;48.896;9.192;2023-03-19T16:09:31;14.00;99.90
7934;DHT22;4012;48.896;9.192;2023-03-19T16:11:57;13.90;99.90
7934;DHT22;4012;48.896;9.192;2023-03-19T16:14:39;13.80;99.90
7934;DHT22;4012;48.896;9.192;2023-03-19T16:17:14;13.70;99.90
7934;DHT22;4012;48.896;9.192;2023-03-19T16:19:50;13.60;99.90
7934;DHT22;4012;48.896;9.192;2023-03-19T16:22:24;13.50;99.90
7934;DHT22;4012;48.896;9.192;2023-03-19T16:24:52;13.30;99.90
7934;DHT22;4012;48.896;9.192;2023-03-19T16:27:20;13.30;99.90
7934;DHT22;4012;48.896;9.192;2023-03-19T16:29:48;13.30;99.90
7934;DHT22;4012;48.896;9.192;2023-03-19T16:32:22;13.30;99.90
7934;DHT22;4012;48.896;9.192;2023-03-19T16:34:54;13.40;99.90
7934;DHT22;4012;48.896;9.192;2023-03-19T16:39:56;13.30;99.90
7934;DHT22;4012;48.896;9.192;2023-03-19T16:45:16;13.20;99.90
7934;DHT22;4012;48.896;9.192;2023-03-19T16:47:43;13.10;99.90
7934;DHT22;4012;48.896;9.192;2023-03-19T16:50:10;13.00;99.90
7934;DHT22;4012;48.896;9.192;2023-03-19T16:52:37;12.90;99.90
7934;DHT22;4012;48.896;9.192;2023-03-19T16:55:04;12.90;99.90
7934;DHT22;4012;48.896;9.192;2023-03-19T16:57:36;12.90;99.90
7934;DHT22;4012;48.896;9.192;2023-03-19T17:00:02;13.00;99.90
7934;DHT22;4012;48.896;9.192;2023-03-19T17:02:29;12.90;99.90
7934;DHT22;4012;48.896;9.192;2023-03-19T17:04:55;12.80;99.90
7934;DHT22;4012;48.896;9.192;2023-03-19T17:07:20;12.70;99.90
7934;DHT22;4012;48.896;9.192;2023-03-19T17:09:46;12.90;99.90
7934;DHT22;4012;48.896;9.192;2023-03-19T17:12:14;13.00;99.90
7934;DHT22;4012;48.896;9.192;2023-03-19T17:14:40;12.90;99.90
7934;DHT22;4012;48.896;9.192;2023-03-19T17:17:18;12.80;99.90
7934;DHT22;4012;48.896;9.192;2023-03-19T17:19:45;12.70;99.90
7934;DHT22;4012;48.896;9.192;2023-03-19T17:22:11;12.70;99.90
7934;DHT22;4012;48.896;9.192;2023-03-19T17:24:40;12.80;99.90
7934;DHT22;4012;48.896;9.192;2023-03-19T17:27:05;12.80;99.90
7934;DHT22;4012;48.896;9.192;2023-03-19T17:29:31;12.70;99.90
7934;DHT22;4012;48.896;9.192;2023-03-19T17:31:59;12.70;99.90
7934;DHT22;4012;48.896;9.192;2023-03-19T17:34:29;12.70;99.90
7934;DHT22;4012;48.896;9.192;2023-03-19T17:36:59;12.70;99.90
7934;DHT22;4012;48.896;9.192;2023-03-19T17:39:26;12.70;99.90
7934;DHT22;4012;48.896;9.192;2023-03-19T17:41:54;12.70;99.90
7934;DHT22;4012;48.896;9.192;2023-03-19T17:44:20;12.70;99.90
7934;DHT22;4012;48.896;9.192;2023-03-19T17:46:49;12.60;99.90
7934;DHT22;4012;48.896;9.192;2023-03-19T17:49:33;12.60;99.90
7934;DHT22;4012;48.896;9.192;2023-03-19T17:51:59;12.60;99.90
7934;DHT22;4012;48.896;9.192;2023-03-19T17:54:25;12.60;99.90
7934;DHT22;4012;48.896;9.192;2023-03-19T17:56:52;12.60;99.90
7934;DHT22;4012;48.896;9.192;2023-03-19T17:59:18;12.60;99.90
7934;DHT22;4012;48.896;9.192;2023-03-19T18:01:46;12.60;99.90
7934;DHT22;4012;48.896;9.192;2023-03-19T18:04:16;12.50;99.90
7934;DHT22;4012;48.896;9.192;2023-03-19T18:06:45;12.50;99.90